createdAt,value
2022-11-28T00:00:35.958Z,100762.75
2022-11-28T00:03:03.887Z,100756.28
2022-11-28T00:05:37.332Z,100765.03
2022-11-28T00:08:12.105Z,100763.09
2022-11-28T00:10:41.113Z,100761.00
2022-11-28T00:13:14.120Z,100771.53
2022-11-28T00:15:45.201Z,100764.38
2022-11-28T00:18:13.434Z,100750.41
2022-11-28T00:20:45.039Z,100737.88
2022-11-28T00:23:14.900Z,100744.22
2022-11-28T00:25:46.417Z,100739.19
2022-11-28T00:28:16.788Z,100746.16
2022-11-28T00:30:53.759Z,100764.19
2022-11-28T00:33:29.825Z,100747.13
2022-11-28T00:36:01.591Z,100759.63
2022-11-28T00:38:29.820Z,100735.41
2022-11-28T00:41:07.880Z,100727.59
2022-11-28T00:43:40.449Z,100711.50
2022-11-28T00:46:08.232Z,100726.28
2022-11-28T00:48:39.260Z,100738.47
2022-11-28T00:51:23.753Z,100747.09
2022-11-28T00:53:54.174Z,100757.81
2022-11-28T00:56:25.223Z,100731.97
2022-11-28T00:58:56.698Z,100722.53
2022-11-28T01:01:32.282Z,100730.13
2022-11-28T01:04:06.391Z,100730.78
2022-11-28T01:06:40.407Z,100705.41
2022-11-28T01:09:17.336Z,100710.78
2022-11-28T01:11:45.773Z,100741.97
2022-11-28T01:14:14.146Z,100733.88
2022-11-28T01:16:41.888Z,100714.19
2022-11-28T01:19:18.264Z,100740.84
2022-11-28T01:22:04.064Z,100730.13
2022-11-28T01:24:46.784Z,100724.28
2022-11-28T01:27:15.211Z,100722.66
2022-11-28T01:29:49.019Z,100715.50
2022-11-28T01:32:16.794Z,100728.19
2022-11-28T01:34:44.288Z,100727.22
2022-11-28T01:37:14.055Z,100717.50
2022-11-28T01:39:48.194Z,100719.44
2022-11-28T01:42:23.159Z,100730.34
2022-11-28T01:44:53.410Z,100735.38
2022-11-28T01:47:28.027Z,100717.09
2022-11-28T01:49:58.671Z,100724.84
2022-11-28T01:52:26.232Z,100733.78
2022-11-28T01:54:58.206Z,100719.34
2022-11-28T01:57:28.686Z,100731.69
2022-11-28T02:00:20.376Z,100727.16
2022-11-28T02:02:58.674Z,100730.56
2022-11-28T02:05:30.253Z,100707.50
2022-11-28T02:07:58.136Z,100731.84
2022-11-28T02:10:47.000Z,100726.19
2022-11-28T02:13:44.509Z,100724.38
2022-11-28T02:16:36.973Z,100703.28
2022-11-28T02:19:34.653Z,100726.19
2022-11-28T02:22:57.373Z,100708.47
2022-11-28T02:26:20.035Z,100707.19
2022-11-28T02:29:07.764Z,100721.13
2022-11-28T02:31:41.451Z,100716.59
2022-11-28T02:34:28.528Z,100703.91
2022-11-28T02:37:14.109Z,100706.97
2022-11-28T02:39:57.094Z,100699.84
2022-11-28T02:42:36.060Z,100713.50
2022-11-28T02:45:13.809Z,100708.94
2022-11-28T02:47:55.552Z,100709.28
2022-11-28T02:50:38.632Z,100698.69
2022-11-28T02:53:19.975Z,100705.38
2022-11-28T02:55:47.961Z,100707.16
2022-11-28T02:58:19.040Z,100701.94
2022-11-28T03:00:52.575Z,100687.00
2022-11-28T03:03:44.889Z,100707.94
2022-11-28T03:06:24.058Z,100704.38
2022-11-28T03:09:40.780Z,100686.69
2022-11-28T03:12:37.030Z,100700.00
2022-11-28T03:15:08.017Z,100693.34
2022-11-28T03:18:11.536Z,100701.13
2022-11-28T03:21:00.512Z,100686.00
2022-11-28T03:23:38.606Z,100691.69
2022-11-28T03:26:12.767Z,100673.00
2022-11-28T03:29:16.149Z,100701.59
2022-11-28T03:32:01.410Z,100712.69
2022-11-28T03:34:39.356Z,100690.28
2022-11-28T03:37:16.638Z,100703.44
2022-11-28T03:39:49.948Z,100696.78
2022-11-28T03:42:25.962Z,100684.91
2022-11-28T03:45:08.128Z,100692.69
2022-11-28T03:47:40.875Z,100686.69
2022-11-28T03:50:36.797Z,100696.25
2022-11-28T03:53:18.834Z,100682.00
2022-11-28T03:58:58.048Z,100700.97
2022-11-28T04:01:34.557Z,100692.22
2022-11-28T04:04:16.967Z,100695.13
2022-11-28T04:07:00.631Z,100698.03
2022-11-28T04:10:00.726Z,100697.09
2022-11-28T04:12:57.777Z,100706.50
2022-11-28T04:15:38.677Z,100708.63
2022-11-28T04:18:21.292Z,100704.06
2022-11-28T04:21:02.524Z,100698.34
2022-11-28T04:23:31.840Z,100690.72
2022-11-28T04:26:07.543Z,100685.03
2022-11-28T04:28:36.973Z,100681.66
2022-11-28T04:31:08.280Z,100693.81
2022-11-28T04:33:40.950Z,100689.94
2022-11-28T04:36:11.092Z,100692.34
2022-11-28T04:38:43.758Z,100691.38
2022-11-28T04:41:15.625Z,100693.66
2022-11-28T04:43:52.128Z,100686.34
2022-11-28T04:46:30.305Z,100687.13
2022-11-28T04:48:58.377Z,100691.25
2022-11-28T04:51:59.374Z,100703.91
2022-11-28T04:54:53.195Z,100717.06
2022-11-28T04:57:38.777Z,100705.38
2022-11-28T05:00:13.331Z,100705.53
2022-11-28T05:02:45.772Z,100702.28
2022-11-28T05:05:19.804Z,100694.00
2022-11-28T05:07:53.668Z,100700.31
2022-11-28T05:10:23.317Z,100715.94
2022-11-28T05:12:54.946Z,100702.59
2022-11-28T05:15:24.363Z,100694.19
2022-11-28T05:17:51.999Z,100728.78
2022-11-28T05:20:19.306Z,100719.50
2022-11-28T05:22:48.836Z,100728.59
2022-11-28T05:25:19.379Z,100723.56
2022-11-28T05:27:49.363Z,100721.13
2022-11-28T05:30:16.854Z,100716.28
2022-11-28T05:32:44.353Z,100706.03
2022-11-28T05:35:11.437Z,100721.63
2022-11-28T05:37:43.832Z,100723.56
2022-11-28T05:40:14.502Z,100711.06
2022-11-28T05:42:48.407Z,100714.47
2022-11-28T05:45:18.405Z,100717.56
2022-11-28T05:47:48.576Z,100710.75
2022-11-28T05:50:24.852Z,100727.97
2022-11-28T05:52:58.462Z,100719.03
2022-11-28T05:55:28.797Z,100720.13
2022-11-28T05:58:13.068Z,100716.91
2022-11-28T06:00:43.569Z,100716.91
2022-11-28T06:03:10.919Z,100718.38
2022-11-28T06:05:43.515Z,100716.91
2022-11-28T06:08:17.140Z,100720.28
2022-11-28T06:10:45.469Z,100714.91
2022-11-28T06:13:18.306Z,100721.91
2022-11-28T06:16:15.370Z,100714.75
2022-11-28T06:18:44.024Z,100726.31
2022-11-28T06:21:13.196Z,100718.69
2022-11-28T06:23:41.126Z,100717.38
2022-11-28T06:26:16.412Z,100733.13
2022-11-28T06:28:43.910Z,100728.75
2022-11-28T06:31:16.586Z,100742.09
2022-11-28T06:33:49.453Z,100735.72
2022-11-28T06:36:18.173Z,100721.09
2022-11-28T06:38:48.259Z,100728.75
2022-11-28T06:41:23.147Z,100729.53
2022-11-28T06:43:51.124Z,100723.06
2022-11-28T06:46:24.581Z,100740.75
2022-11-28T06:48:57.691Z,100717.34
2022-11-28T06:51:25.399Z,100732.28
2022-11-28T06:53:52.505Z,100723.38
2022-11-28T06:56:26.488Z,100725.31
2022-11-28T06:58:56.655Z,100751.44
2022-11-28T07:01:29.871Z,100736.84
2022-11-28T07:03:58.583Z,100735.56
2022-11-28T07:06:29.855Z,100751.63
2022-11-28T07:09:02.835Z,100764.97
2022-11-28T07:11:41.499Z,100763.50
2022-11-28T07:14:10.464Z,100735.88
2022-11-28T07:16:38.431Z,100749.38
2022-11-28T07:19:11.863Z,100763.81
2022-11-28T07:21:42.392Z,100749.06
2022-11-28T07:24:12.650Z,100774.38
2022-11-28T07:26:42.660Z,100772.06
2022-11-28T07:29:14.877Z,100766.88
2022-11-28T07:31:42.640Z,100766.56
2022-11-28T07:34:14.783Z,100771.25
2022-11-28T07:36:47.559Z,100759.41
2022-11-28T07:39:19.767Z,100764.13
2022-11-28T07:41:46.871Z,100757.16
2022-11-28T07:44:36.751Z,100772.56
2022-11-28T07:47:04.177Z,100777.91
2022-11-28T07:49:31.675Z,100787.00
2022-11-28T07:51:58.675Z,100763.44
2022-11-28T07:54:25.979Z,100761.97
2022-11-28T07:57:12.780Z,100770.44
2022-11-28T07:59:41.919Z,100787.00
2022-11-28T08:02:15.311Z,100791.38
2022-11-28T08:04:48.596Z,100778.88
2022-11-28T08:07:19.769Z,100794.94
2022-11-28T08:09:49.583Z,100791.25
2022-11-28T08:12:16.880Z,100788.28
2022-11-28T08:14:45.313Z,100796.41
2022-11-28T08:17:16.558Z,100778.56
2022-11-28T08:19:44.374Z,100798.41
2022-11-28T08:22:13.559Z,100787.97
2022-11-28T08:24:41.087Z,100801.00
2022-11-28T08:27:16.965Z,100800.16
2022-11-28T08:29:49.184Z,100803.38
2022-11-28T08:32:18.835Z,100786.16
2022-11-28T08:34:45.940Z,100794.94
2022-11-28T08:37:18.331Z,100795.75
2022-11-28T08:39:46.632Z,100803.19
2022-11-28T08:42:16.864Z,100793.44
2022-11-28T08:44:47.237Z,100786.09
2022-11-28T08:47:20.890Z,100786.72
2022-11-28T08:49:48.862Z,100802.31
2022-11-28T08:52:25.618Z,100788.19
2022-11-28T08:54:52.877Z,100797.97
2022-11-28T08:57:19.935Z,100799.56
2022-11-28T08:59:48.145Z,100804.47
2022-11-28T09:02:16.604Z,100808.66
2022-11-28T09:04:47.113Z,100803.31
2022-11-28T09:07:16.691Z,100805.28
2022-11-28T09:09:44.169Z,100802.50
2022-11-28T09:12:16.314Z,100804.72
2022-11-28T09:14:44.560Z,100794.78
2022-11-28T09:17:13.529Z,100807.03
2022-11-28T09:19:43.531Z,100814.19
2022-11-28T09:22:12.524Z,100824.56
2022-11-28T09:24:43.767Z,100806.47
2022-11-28T09:27:15.335Z,100805.13
2022-11-28T09:29:49.061Z,100830.50
2022-11-28T09:32:17.303Z,100826.41
2022-11-28T09:34:44.354Z,100824.59
2022-11-28T09:37:14.093Z,100825.06
2022-11-28T09:40:12.211Z,100822.75
2022-11-28T09:42:52.022Z,100836.88
2022-11-28T09:45:22.506Z,100817.34
2022-11-28T09:47:54.603Z,100823.53
2022-11-28T09:50:25.419Z,100826.56
2022-11-28T09:53:34.615Z,100842.19
2022-11-28T09:56:10.195Z,100847.94
2022-11-28T09:58:56.838Z,100828.06
2022-11-28T10:01:44.416Z,100835.28
2022-11-28T10:04:45.028Z,100824.13
2022-11-28T10:07:49.920Z,100840.34
2022-11-28T10:10:55.640Z,100842.50
2022-11-28T10:13:59.863Z,100837.09
2022-11-28T10:16:50.512Z,100838.81
2022-11-28T10:22:22.847Z,100829.19
2022-11-28T10:25:02.488Z,100826.84
2022-11-28T10:27:37.517Z,100831.00
2022-11-28T10:30:34.304Z,100842.25
2022-11-28T10:33:03.355Z,100843.50
2022-11-28T10:35:46.687Z,100852.41
2022-11-28T10:38:21.081Z,100848.09
2022-11-28T10:41:03.137Z,100849.16
2022-11-28T10:43:40.400Z,100841.16
2022-11-28T10:46:35.490Z,100848.09
2022-11-28T10:49:27.499Z,100858.75
2022-11-28T10:52:27.371Z,100840.19
2022-11-28T10:55:30.542Z,100858.84
2022-11-28T10:58:17.859Z,100855.34
2022-11-28T11:00:54.985Z,100837.78
2022-11-28T11:03:43.223Z,100835.53
2022-11-28T11:06:12.602Z,100843.28
2022-11-28T11:08:51.839Z,100836.34
2022-11-28T11:11:37.197Z,100835.34
2022-11-28T11:14:16.426Z,100827.31
2022-11-28T11:17:24.268Z,100838.59
2022-11-28T11:19:55.511Z,100813.28
2022-11-28T11:25:20.504Z,100807.97
2022-11-28T11:28:05.161Z,100821.13
2022-11-28T11:30:39.011Z,100820.78
2022-11-28T11:33:19.935Z,100826.09
2022-11-28T11:35:53.974Z,100829.13
2022-11-28T11:38:22.096Z,100843.13
2022-11-28T11:40:50.639Z,100825.91
2022-11-28T11:43:47.172Z,100834.53
2022-11-28T11:46:18.310Z,100827.63
2022-11-28T11:49:27.521Z,100843.66
2022-11-28T11:52:16.585Z,100847.97
2022-11-28T11:55:14.693Z,100836.91
2022-11-28T11:57:52.957Z,100829.97
2022-11-28T12:00:36.234Z,100835.53
2022-11-28T12:03:48.566Z,100860.59
2022-11-28T12:06:26.740Z,100832.63
2022-11-28T12:09:07.809Z,100856.00
2022-11-28T12:11:47.318Z,100829.97
2022-11-28T12:18:00.151Z,100848.88
2022-11-28T12:23:54.802Z,100851.41
2022-11-28T12:26:58.693Z,100834.38
2022-11-28T12:29:47.141Z,100835.06
2022-11-28T12:32:32.308Z,100827.78
2022-11-28T12:35:15.767Z,100850.03
2022-11-28T12:38:13.780Z,100832.09
2022-11-28T12:41:05.961Z,100831.56
2022-11-28T12:43:43.872Z,100850.13
2022-11-28T12:46:45.995Z,100847.34
2022-11-28T12:49:36.755Z,100847.16
2022-11-28T12:52:46.876Z,100849.69
2022-11-28T12:56:01.159Z,100857.97
2022-11-28T12:58:36.778Z,100836.69
2022-11-28T13:01:38.823Z,100850.75
2022-11-28T13:04:19.006Z,100853.56
2022-11-28T13:07:00.993Z,100857.41
2022-11-28T13:09:42.004Z,100860.91
2022-11-28T13:12:22.231Z,100862.91
2022-11-28T13:15:18.147Z,100859.91
2022-11-28T13:18:24.855Z,100859.03
2022-11-28T13:21:05.498Z,100846.44
2022-11-28T13:24:03.730Z,100865.88
2022-11-28T13:27:00.754Z,100844.16
2022-11-28T13:29:45.329Z,100867.72
2022-11-28T13:32:54.212Z,100868.16
2022-11-28T13:35:30.563Z,100851.69
2022-11-28T13:44:44.178Z,100863.50
2022-11-28T13:47:15.286Z,100860.03
2022-11-28T13:49:48.675Z,100870.59
2022-11-28T13:52:19.017Z,100883.56
2022-11-28T13:55:17.852Z,100881.75
2022-11-28T13:57:47.391Z,100869.16
2022-11-28T14:00:28.959Z,100865.53
2022-11-28T14:03:27.598Z,100857.28
2022-11-28T14:06:04.864Z,100866.81
2022-11-28T14:08:44.053Z,100877.91
2022-11-28T14:11:29.085Z,100856.63
2022-11-28T14:14:07.987Z,100881.31
2022-11-28T14:17:04.045Z,100886.91
2022-11-28T14:19:55.270Z,100863.41
2022-11-28T14:22:56.624Z,100867.66
2022-11-28T14:25:51.215Z,100868.81
2022-11-28T14:28:55.944Z,100890.19
2022-11-28T14:32:27.995Z,100868.91
2022-11-28T14:34:57.975Z,100877.81
2022-11-28T14:37:59.148Z,100900.91
2022-11-28T14:41:07.998Z,100911.09
2022-11-28T14:44:37.266Z,100894.88
2022-11-28T14:47:47.813Z,100914.25
2022-11-28T14:51:01.290Z,100914.97
2022-11-28T14:54:03.460Z,100898.28
2022-11-28T14:56:41.206Z,100905.94
2022-11-28T15:10:34.557Z,100896.88
2022-11-28T15:14:23.022Z,100928.44
2022-11-28T15:17:42.832Z,100915.09
2022-11-28T15:25:08.667Z,100910.44
2022-11-28T15:28:55.971Z,100920.66
2022-11-28T15:32:09.311Z,100936.69
2022-11-28T15:34:48.167Z,100927.00
2022-11-28T15:45:27.590Z,100942.22
2022-11-28T15:48:28.137Z,100952.28
2022-11-28T15:51:09.492Z,100940.09
2022-11-28T15:53:53.713Z,100949.88
2022-11-28T15:56:29.302Z,100931.72
2022-11-28T15:59:35.156Z,100942.34
2022-11-28T16:02:24.146Z,100966.59
2022-11-28T16:05:21.091Z,100962.19
2022-11-28T16:14:31.222Z,100968.44
2022-11-28T16:17:33.942Z,100962.91
2022-11-28T16:20:28.400Z,100986.47
2022-11-28T16:23:16.982Z,100987.47
2022-11-28T16:31:04.245Z,100979.91
2022-11-28T16:37:49.103Z,100983.59
2022-11-28T16:41:03.790Z,100990.47
2022-11-28T16:53:05.385Z,101022.75
2022-11-28T16:56:28.436Z,101021.44
2022-11-28T16:59:17.473Z,101004.03
2022-11-28T17:02:00.241Z,101014.63
2022-11-28T17:04:38.655Z,101012.22
2022-11-28T17:07:16.690Z,101035.47
2022-11-28T17:09:49.507Z,101020.50
2022-11-28T17:12:34.903Z,101043.78
2022-11-28T17:15:24.292Z,101044.09
2022-11-28T17:17:59.600Z,101029.94
2022-11-28T17:20:26.983Z,101059.06
2022-11-28T17:22:58.635Z,101065.09
2022-11-28T17:25:30.804Z,101033.69
2022-11-28T17:28:17.339Z,101045.09
2022-11-28T17:31:02.370Z,101030.25
2022-11-28T17:33:31.416Z,101036.63
2022-11-28T17:36:03.367Z,101036.97
2022-11-28T17:38:41.056Z,101034.50
2022-11-28T17:44:00.948Z,101067.13
2022-11-28T17:46:43.699Z,101053.59
2022-11-28T17:49:34.746Z,101069.72
2022-11-28T17:52:54.650Z,101055.69
2022-11-28T17:55:50.856Z,101074.28
2022-11-28T17:58:26.816Z,101069.56
2022-11-28T18:01:09.003Z,101062.88
2022-11-28T18:03:43.279Z,101054.91
2022-11-28T18:06:18.386Z,101049.22
2022-11-28T18:09:11.956Z,101057.69
2022-11-28T18:11:55.261Z,101052.81
2022-11-28T18:14:39.432Z,101063.88
2022-11-28T18:20:08.798Z,101049.22
2022-11-28T18:22:52.914Z,101047.75
2022-11-28T18:32:10.254Z,101074.13
2022-11-28T18:34:55.031Z,101067.28
2022-11-28T18:37:51.921Z,101063.50
2022-11-28T18:40:24.641Z,101071.66
2022-11-28T18:43:10.680Z,101065.16
2022-11-28T18:46:14.365Z,101084.69
2022-11-28T18:48:57.813Z,101078.19
2022-11-28T18:51:47.514Z,101077.69
2022-11-28T18:54:20.640Z,101072.47
2022-11-28T18:56:59.867Z,101070.84
2022-11-28T18:59:33.676Z,101075.41
2022-11-28T19:02:03.687Z,101086.50
2022-11-28T19:04:58.970Z,101082.72
2022-11-28T19:07:28.833Z,101076.88
2022-11-28T19:10:02.260Z,101081.06
2022-11-28T19:12:32.699Z,101092.84
2022-11-28T19:15:08.239Z,101088.75
2022-11-28T19:18:09.934Z,101070.66
2022-11-28T19:21:23.659Z,101094.75
2022-11-28T19:26:58.087Z,101084.63
2022-11-28T19:29:41.043Z,101099.47
2022-11-28T19:32:38.606Z,101107.13
2022-11-28T19:35:10.465Z,101101.09
2022-11-28T19:37:42.469Z,101109.09
2022-11-28T19:40:16.789Z,101100.91
2022-11-28T19:42:59.547Z,101114.28
2022-11-28T19:45:36.898Z,101096.81
2022-11-28T19:48:13.828Z,101096.47
2022-11-28T19:50:57.710Z,101098.56
2022-11-28T19:53:46.106Z,101113.22
2022-11-28T19:56:28.006Z,101124.97
2022-11-28T19:59:22.800Z,101100.50
2022-11-28T20:02:41.654Z,101128.84
2022-11-28T20:05:24.996Z,101127.22
2022-11-28T20:07:58.664Z,101103.59
2022-11-28T20:10:53.186Z,101118.13
2022-11-28T20:13:36.272Z,101130.06
2022-11-28T20:16:07.761Z,101124.97
2022-11-28T20:21:48.188Z,101115.81
2022-11-28T20:28:54.479Z,101119.72
2022-11-28T20:32:06.210Z,101121.97
2022-11-28T20:35:07.521Z,101156.16
2022-11-28T20:37:46.845Z,101144.72
2022-11-28T20:43:33.477Z,101155.53
2022-11-28T20:46:23.619Z,101148.00
2022-11-28T20:49:17.939Z,101160.84
2022-11-28T20:53:38.058Z,101150.84
2022-11-28T20:55:08.183Z,101153.22
2022-11-28T20:57:47.980Z,101170.09
2022-11-28T21:00:43.151Z,101154.63
2022-11-28T21:03:18.839Z,101146.63
2022-11-28T21:06:04.660Z,101155.75
2022-11-28T21:08:41.570Z,101177.25
2022-11-28T21:11:56.848Z,101170.94
2022-11-28T21:14:30.062Z,101167.69
2022-11-28T21:17:07.949Z,101188.91
2022-11-28T21:20:17.852Z,101183.50
2022-11-28T21:26:49.698Z,101189.97
2022-11-28T21:36:18.127Z,101184.50
2022-11-28T21:42:20.217Z,101180.28
2022-11-28T21:45:35.740Z,101173.53
2022-11-28T21:48:10.864Z,101163.34
2022-11-28T21:51:11.268Z,101166.94
2022-11-28T21:53:40.185Z,101175.75
2022-11-28T21:56:17.100Z,101191.94
2022-11-28T21:58:46.811Z,101173.75
2022-11-28T22:01:46.065Z,101198.78
2022-11-28T22:07:30.924Z,101201.38
2022-11-28T22:10:14.328Z,101187.13
2022-11-28T22:12:51.503Z,101202.88
2022-11-28T22:15:58.380Z,101180.34
2022-11-28T22:18:34.960Z,101198.91
2022-11-28T22:27:07.043Z,101180.84
2022-11-28T22:29:36.528Z,101174.44
2022-11-28T22:32:10.847Z,101190.00
2022-11-28T22:34:40.289Z,101185.94
2022-11-28T22:37:15.267Z,101188.91
2022-11-28T22:39:45.569Z,101205.69
2022-11-28T22:42:23.167Z,101208.38
2022-11-28T22:45:08.722Z,101188.97
2022-11-28T22:47:38.036Z,101206.28
2022-11-28T22:50:18.699Z,101188.09
2022-11-28T22:53:01.211Z,101201.31
2022-11-28T22:55:39.924Z,101198.41
2022-11-28T22:58:39.467Z,101210.59
2022-11-28T23:01:16.057Z,101198.03
2022-11-28T23:03:57.479Z,101206.28
2022-11-28T23:07:00.210Z,101210.00
2022-11-28T23:09:34.863Z,101214.28
2022-11-28T23:17:42.823Z,101221.53
2022-11-28T23:20:12.344Z,101214.47
2022-11-28T23:22:58.780Z,101217.63
2022-11-28T23:25:26.758Z,101213.03
2022-11-28T23:28:01.203Z,101221.47
2022-11-28T23:30:46.966Z,101219.19
2022-11-28T23:33:27.982Z,101223.03
2022-11-28T23:36:27.084Z,101246.78
2022-11-28T23:39:06.867Z,101225.00
2022-11-28T23:41:46.356Z,101237.16
2022-11-28T23:44:34.087Z,101226.69
2022-11-28T23:50:13.759Z,101244.41
2022-11-28T23:53:04.698Z,101241.56
2022-11-28T23:55:40.560Z,101258.75
2022-11-28T23:58:27.214Z,101254.28
